Time;durP1;ratioP1;P1;durP2;ratioP2;P2;SDS_P1;SDS_P2;PMS_P1;PMS_P2;Temp;Humidity;BMP_temperature;BMP_pressure;BME280_temperature;BME280_humidity;BME280_pressure;Samples;Min_cycle;Max_cycle;Signal;HPM_P1;HPM_P2
2021/12/02 00:01:11;;;;;;;1.02;0.60;;;;;;;9.47;73.08;97629.30;2911694;81;20978;-75
2021/12/02 00:05:12;;;;;;;0.40;0.40;;;;;;;9.57;72.34;97637.30;2869003;83;21075;-75
2021/12/02 00:09:14;;;;;;;0.90;0.40;;;;;;;9.57;71.86;97635.16;2869063;83;21007;-75
2021/12/02 00:13:20;;;;;;;1.15;0.60;;;;;;;9.54;72.28;97634.21;2869112;83;21055;-74
2021/12/02 00:17:24;;;;;;;0.30;0.30;;;;;;;9.51;71.78;97632.73;2911189;81;21054;-74
2021/12/02 00:21:26;;;;;;;3.35;1.10;;;;;;;9.54;71.33;97636.34;2910663;81;21637;-74
2021/12/02 00:25:28;;;;;;;1.47;0.85;;;;;;;9.58;71.45;97644.25;2869340;83;21087;-74
2021/12/02 00:29:31;;;;;;;3.22;1.10;;;;;;;9.58;71.11;97641.59;2869192;83;21118;-75
2021/12/02 00:33:34;;;;;;;1.37;0.72;;;;;;;9.60;70.14;97632.63;2869472;83;21118;-74
2021/12/02 00:37:38;;;;;;;0.57;0.42;;;;;;;9.56;70.50;97638.83;2868895;83;21091;-74
2021/12/02 00:41:40;;;;;;;0.33;0.33;;;;;;;9.47;71.06;97634.12;2870341;83;20980;-75
2021/12/02 00:45:44;;;;;;;1.27;0.72;;;;;;;9.47;71.22;97638.09;2872397;82;21087;-73
2021/12/02 00:49:47;;;;;;;0.65;0.42;;;;;;;9.47;71.02;97629.30;2872238;83;21071;-74
2021/12/02 00:53:54;;;;;;;1.85;0.80;;;;;;;9.48;71.56;97647.70;2871179;83;21056;-75
2021/12/02 00:57:54;;;;;;;0.47;0.47;;;;;;;9.42;71.40;97649.73;2870807;83;21087;-75
2021/12/02 01:01:58;;;;;;;0.53;0.53;;;;;;;9.50;71.84;97673.55;2872129;83;21071;-75
2021/12/02 01:06:02;;;;;;;0.78;0.60;;;;;;;9.43;73.87;97695.17;2871783;83;21103;-75
2021/12/02 01:10:05;;;;;;;0.60;0.60;;;;;;;9.17;76.21;97683.17;2871139;83;21023;-78
2021/12/02 01:14:09;;;;;;;0.65;0.40;;;;;;;8.99;75.37;97690.14;2870772;83;21075;-76
2021/12/02 01:18:10;;;;;;;0.40;0.20;;;;;;;8.81;74.33;97688.63;2870503;83;21053;-77
2021/12/02 01:22:14;;;;;;;0.20;0.20;;;;;;;8.59;71.07;97696.91;2870244;83;21094;-77
2021/12/02 01:26:18;;;;;;;1.00;0.25;;;;;;;8.48;69.43;97698.63;2870327;82;21362;-77
2021/12/02 01:30:20;;;;;;;0.30;0.30;;;;;;;8.30;68.59;97727.55;2870513;83;21044;-77
2021/12/02 01:34:25;;;;;;;0.57;0.33;;;;;;;8.16;68.94;97705.28;2870452;83;20984;-75
2021/12/02 01:38:30;;;;;;;0.30;0.10;;;;;;;8.04;69.45;97716.73;2870926;83;21047;-75
2021/12/02 01:42:35;;;;;;;0.40;0.40;;;;;;;7.94;70.07;97737.30;2870404;83;21068;-77
2021/12/02 01:46:39;;;;;;;2.50;0.50;;;;;;;7.83;70.35;97739.31;2870025;83;21111;-75
2021/12/02 01:50:40;;;;;;;0.20;0.20;;;;;;;7.71;70.83;97744.67;2870349;83;21063;-78
2021/12/02 01:54:47;;;;;;;0.80;0.20;;;;;;;7.70;70.86;97752.28;2870087;83;21047;-77
2021/12/02 01:58:51;;;;;;;;;;;;;;;7.60;71.50;97755.59;2873223;83;21048;-78
2021/12/02 02:02:54;;;;;;;0.20;0.10;;;;;;;7.49;72.09;97756.30;2870723;83;20159;-78
2021/12/02 02:07:03;;;;;;;0.20;0.20;;;;;;;7.36;72.20;97753.33;2870791;82;21123;-78
2021/12/02 02:11:04;;;;;;;1.90;0.45;;;;;;;7.37;72.53;97760.27;2870550;83;21663;-76
2021/12/02 02:15:07;;;;;;;1.20;0.50;;;;;;;7.27;73.59;97773.67;2870383;83;21059;-77
2021/12/02 02:19:12;;;;;;;0.60;0.20;;;;;;;7.21;73.83;97783.59;2870259;83;21086;-77
2021/12/02 02:23:13;;;;;;;1.00;0.30;;;;;;;7.07;74.25;97792.52;2912749;81;20998;-73
2021/12/02 02:27:15;;;;;;;0.72;0.30;;;;;;;7.04;74.69;97798.61;2912507;81;21630;-75
2021/12/02 02:31:18;;;;;;;1.27;0.30;;;;;;;6.96;75.32;97794.14;2870243;83;21018;-76
2021/12/02 02:35:19;;;;;;;1.47;0.40;;;;;;;6.84;75.53;97783.07;2870843;83;21043;-75
2021/12/02 02:39:24;;;;;;;0.72;0.72;;;;;;;6.81;76.00;97805.86;2870773;83;21043;-78
2021/12/02 02:43:27;;;;;;;0.70;0.62;;;;;;;6.69;76.60;97803.55;2871044;83;21059;-78
2021/12/02 02:47:29;;;;;;;0.95;0.45;;;;;;;6.70;76.92;97813.13;2871244;83;21059;-78
2021/12/02 02:51:33;;;;;;;4.42;0.40;;;;;;;6.67;77.37;97809.45;2870753;83;21103;-76
2021/12/02 02:55:35;;;;;;;1.37;0.40;;;;;;;6.63;77.89;97823.98;2870888;83;21540;-75
2021/12/02 03:00:01;;;;;;;0.80;0.62;;;;;;;6.60;78.39;97824.31;2870335;83;21060;-77
2021/12/02 03:04:07;;;;;;;0.70;0.28;;;;;;;6.58;78.84;97830.25;2912074;81;21046;-77
2021/12/02 03:08:17;;;;;;;4.70;0.25;;;;;;;6.56;79.58;97834.36;2911746;81;21033;-78
2021/12/02 03:12:27;;;;;;;0.82;0.60;;;;;;;6.61;80.18;97835.21;2910539;81;20987;-77
2021/12/02 03:20:44;;;;;;;2.08;0.80;;;;;;;6.61;80.83;97841.00;2871231;83;21119;-74
2021/12/02 03:24:46;;;;;;;2.58;0.88;;;;;;;6.60;81.07;97834.88;2871330;83;21063;-78
2021/12/02 03:28:49;;;;;;;0.78;0.55;;;;;;;6.63;81.22;97843.80;2871106;83;21071;-78
2021/12/02 03:32:51;;;;;;;2.92;0.50;;;;;;;6.70;81.06;97865.13;2870531;83;21064;-76
2021/12/02 03:36:54;;;;;;;0.62;0.62;;;;;;;6.68;80.26;97850.77;2870563;83;21086;-77
2021/12/02 03:40:55;;;;;;;0.93;0.50;;;;;;;6.69;79.60;97862.15;2871193;83;21071;-77
2021/12/02 03:44:58;;;;;;;0.80;0.50;;;;;;;6.65;79.12;97844.45;2871459;83;21047;-77
2021/12/02 03:48:59;;;;;;;0.45;0.45;;;;;;;6.60;78.61;97860.48;2870892;83;21056;-78
2021/12/02 03:53:01;;;;;;;1.05;0.40;;;;;;;6.56;78.10;97869.20;2871073;83;21070;-77
2021/12/02 03:57:04;;;;;;;1.00;0.40;;;;;;;6.56;77.69;97874.49;2871154;83;21106;-76
2021/12/02 04:01:07;;;;;;;4.78;0.50;;;;;;;6.51;77.57;97876.28;2871218;83;21075;-77
2021/12/02 04:05:09;;;;;;;0.93;0.50;;;;;;;6.43;77.22;97863.05;2871741;83;21690;-76
2021/12/02 04:13:24;;;;;;;0.33;0.33;;;;;;;6.45;76.58;97872.13;2874360;83;21051;-77
2021/12/02 04:17:30;;;;;;;1.22;0.55;;;;;;;6.36;76.36;97872.58;2915966;81;21030;-76
2021/12/02 04:21:26;;;;;;;1.37;1.15;;;;;;;6.31;75.41;97874.40;2914970;81;21062;-77
2021/12/02 04:25:27;;;;;;;1.82;0.55;;;;;;;6.27;74.73;97894.16;2874224;83;20989;-78
2021/12/02 04:29:29;;;;;;;1.17;0.60;;;;;;;6.26;74.25;97888.54;2873830;83;21079;-74
2021/12/02 04:33:31;;;;;;;4.37;0.88;;;;;;;6.22;74.03;97900.41;2873987;82;21008;-76
2021/12/02 04:37:33;;;;;;;1.57;0.70;;;;;;;6.09;74.45;97904.31;2874141;83;21047;-76
2021/12/02 04:41:35;;;;;;;1.87;0.85;;;;;;;5.97;74.87;97916.06;2873771;83;21059;-74
2021/12/02 04:45:37;;;;;;;1.92;0.57;;;;;;;5.92;75.10;97920.48;2872496;82;21024;-75
2021/12/02 04:49:41;;;;;;;2.25;1.30;;;;;;;5.98;74.76;97934.87;2838655;83;21075;-75
2021/12/02 04:53:42;;;;;;;0.62;0.50;;;;;;;6.07;75.28;97931.84;2829934;84;21043;-76
2021/12/02 04:57:44;;;;;;;2.40;1.10;;;;;;;6.13;75.29;97940.44;2865000;83;21053;-76
2021/12/02 05:01:46;;;;;;;1.40;0.78;;;;;;;6.19;75.14;97945.13;2864964;83;21018;-78
2021/12/02 05:05:48;;;;;;;1.98;1.05;;;;;;;6.27;74.48;97958.84;2865476;83;20987;-74
2021/12/02 05:09:49;;;;;;;3.25;1.15;;;;;;;6.23;74.51;97948.27;2865593;83;21093;-74
2021/12/02 05:13:51;;;;;;;1.92;1.35;;;;;;;6.18;74.09;97942.12;2865649;83;21374;-75
2021/12/02 05:17:53;;;;;;;1.20;0.60;;;;;;;6.25;74.08;97959.48;2865679;83;21031;-74
2021/12/02 05:21:55;;;;;;;1.67;0.80;;;;;;;6.25;74.57;97939.69;2865851;83;21014;-76
2021/12/02 05:25:56;;;;;;;2.35;0.70;;;;;;;6.20;73.98;97938.02;2865856;83;21054;-77
2021/12/02 05:29:58;;;;;;;1.65;1.05;;;;;;;6.17;73.28;97933.86;2865800;83;21057;-73
2021/12/02 05:34:00;;;;;;;2.62;1.15;;;;;;;6.11;73.59;97935.81;2865815;83;20998;-75
2021/12/02 05:38:01;;;;;;;3.00;0.70;;;;;;;6.08;73.86;97929.53;2865120;83;21030;-72
2021/12/02 05:42:04;;;;;;;1.37;1.05;;;;;;;6.00;73.78;97932.44;2873063;81;21044;-74
2021/12/02 05:46:06;;;;;;;7.05;1.05;;;;;;;5.97;73.67;97930.08;2873692;81;20981;-78
2021/12/02 05:50:09;;;;;;;1.98;0.80;;;;;;;5.90;73.74;97929.55;2880143;82;21002;-79
2021/12/02 05:54:11;;;;;;;1.67;0.90;;;;;;;5.85;73.94;97929.50;2880505;82;21061;-78
2021/12/02 05:58:14;;;;;;;2.10;1.27;;;;;;;5.84;73.62;97956.87;2880911;82;21062;-75
2021/12/02 06:02:15;;;;;;;1.90;1.05;;;;;;;5.79;73.61;97953.87;2881217;82;21026;-80
2021/12/02 06:06:17;;;;;;;1.87;0.68;;;;;;;5.78;73.72;97972.00;2880755;81;21038;-78
2021/12/02 06:10:20;;;;;;;1.60;1.00;;;;;;;5.76;74.18;97981.03;2881087;82;21003;-76
2021/12/02 06:14:21;;;;;;;1.15;0.95;;;;;;;5.67;73.31;97974.38;2880431;82;21014;-76
2021/12/02 06:18:23;;;;;;;2.10;1.35;;;;;;;5.76;73.76;97991.11;2880991;81;21018;-75
2021/12/02 06:22:25;;;;;;;3.40;1.02;;;;;;;5.80;74.02;97987.19;2880455;81;21041;-77
2021/12/02 06:26:26;;;;;;;1.40;1.05;;;;;;;5.84;72.93;97983.76;2880535;82;21693;-75
2021/12/02 06:30:28;;;;;;;2.65;0.90;;;;;;;5.94;72.93;98006.10;2880721;82;21046;-79
2021/12/02 06:34:30;;;;;;;3.45;1.00;;;;;;;5.99;73.86;98018.34;2880582;81;21045;-78
2021/12/02 06:38:32;;;;;;;2.72;1.45;;;;;;;5.94;73.54;98026.70;2880319;81;20978;-76
2021/12/02 06:42:34;;;;;;;1.42;0.68;;;;;;;6.05;73.46;98016.94;2880250;82;21030;-78
2021/12/02 06:46:35;;;;;;;2.52;1.17;;;;;;;6.16;73.04;98025.11;2888346;81;21046;-78
2021/12/02 06:50:37;;;;;;;1.60;1.22;;;;;;;6.23;73.08;98028.78;2911715;82;21034;-79
2021/12/02 06:54:40;;;;;;;4.12;1.35;;;;;;;6.22;72.95;98031.09;2911771;82;21042;-76
2021/12/02 06:58:41;;;;;;;1.60;1.50;;;;;;;6.14;73.51;98030.05;2938093;81;20985;-76
2021/12/02 07:02:43;;;;;;;4.78;2.12;;;;;;;6.12;74.15;98050.97;2942628;81;21001;-79
2021/12/02 07:06:45;;;;;;;3.37;1.75;;;;;;;6.10;74.96;98055.10;2942265;80;21548;-76
2021/12/02 07:10:47;;;;;;;4.70;1.52;;;;;;;6.11;74.74;98064.67;2937932;80;21004;-79
2021/12/02 07:14:48;;;;;;;2.35;1.05;;;;;;;6.10;73.22;98063.50;2938073;80;20993;-75
2021/12/02 07:18:56;;;;;;;8.10;1.80;;;;;;;6.19;73.18;98077.59;2938313;80;21533;-77
2021/12/02 07:22:54;;;;;;;5.35;2.27;;;;;;;6.12;73.52;98097.17;2937841;81;21063;-78
2021/12/02 07:26:57;;;;;;;4.92;1.32;;;;;;;5.88;79.15;98106.48;2938002;81;21001;-77
2021/12/02 07:30:58;;;;;;;1.52;1.20;;;;;;;5.64;79.22;98103.09;2938106;80;21013;-78
2021/12/02 07:35:03;;;;;;;2.90;0.72;;;;;;;5.51;79.09;98131.98;2937860;81;21553;-76
2021/12/02 07:39:08;;;;;;;1.95;1.10;;;;;;;5.43;79.32;98128.75;2938249;81;21274;-77
2021/12/02 07:43:09;;;;;;;4.35;1.75;;;;;;;5.43;79.69;98139.30;2938240;81;21087;-78
2021/12/02 07:47:13;;;;;;;4.55;2.17;;;;;;;5.46;78.83;98150.02;2940995;80;21104;-78
2021/12/02 07:51:17;;;;;;;2.55;1.20;;;;;;;5.42;77.69;98145.55;2946819;81;21072;-77
2021/12/02 07:55:20;;;;;;;2.27;1.10;;;;;;;5.45;77.35;98153.64;2946589;80;21020;-75
2021/12/02 07:59:22;;;;;;;4.58;2.05;;;;;;;5.47;77.69;98155.64;2946442;81;20988;-78
2021/12/02 08:03:26;;;;;;;9.88;1.90;;;;;;;5.52;77.35;98157.84;2949909;80;20974;-76
2021/12/02 08:07:28;;;;;;;4.83;1.12;;;;;;;5.61;76.38;98154.82;2976298;80;21049;-76
2021/12/02 08:11:31;;;;;;;2.17;1.27;;;;;;;5.65;73.88;98157.03;2976116;80;21006;-77
2021/12/02 08:15:33;;;;;;;1.25;1.07;;;;;;;5.77;71.89;98154.17;2976153;80;21088;-76
2021/12/02 08:19:34;;;;;;;4.35;1.95;;;;;;;5.82;70.86;98161.99;2976470;80;21048;-75
2021/12/02 08:23:36;;;;;;;4.17;1.35;;;;;;;5.92;70.57;98180.91;2976425;80;20990;-75
2021/12/02 08:27:38;;;;;;;2.95;1.77;;;;;;;5.94;70.58;98171.03;2976682;80;21096;-75
2021/12/02 08:31:40;;;;;;;3.00;1.27;;;;;;;5.98;70.14;98163.16;2976399;80;21006;-77
2021/12/02 08:35:41;;;;;;;4.25;1.67;;;;;;;5.99;69.69;98189.89;2976639;80;20975;-78
2021/12/02 08:39:45;;;;;;;3.77;1.32;;;;;;;6.11;69.68;98186.58;2976373;79;21064;-76
2021/12/02 08:43:48;;;;;;;2.00;0.95;;;;;;;6.19;70.58;98200.36;2976444;80;20990;-76
2021/12/02 08:47:50;;;;;;;2.45;1.77;;;;;;;6.17;68.91;98206.28;2976552;79;21051;-76
2021/12/02 08:51:52;;;;;;;5.95;2.17;;;;;;;6.28;69.46;98223.20;2936833;80;21018;-78
2021/12/02 08:55:53;;;;;;;3.65;1.30;;;;;;;6.38;69.65;98222.67;2936768;81;21048;-75
2021/12/02 08:59:55;;;;;;;4.58;1.50;;;;;;;6.58;69.57;98226.48;2937136;80;21040;-77
2021/12/02 09:03:57;;;;;;;2.80;1.17;;;;;;;6.80;67.81;98232.30;2936624;81;21044;-75
2021/12/02 09:07:59;;;;;;;2.70;1.30;;;;;;;6.88;66.41;98241.63;2936924;78;21066;-75
2021/12/02 09:12:02;;;;;;;3.85;1.25;;;;;;;6.92;68.69;98261.95;2936957;81;20985;-74
2021/12/02 09:16:04;;;;;;;1.87;1.40;;;;;;;6.80;66.72;98245.50;2936610;81;20973;-75
2021/12/02 09:20:10;;;;;;;2.30;1.20;;;;;;;6.58;65.50;98241.02;2936732;81;21059;-77
2021/12/02 09:24:12;;;;;;;3.42;1.65;;;;;;;6.46;66.72;98215.32;2936936;81;21079;-77
2021/12/02 09:28:15;;;;;;;6.67;3.12;;;;;;;6.28;67.01;98274.70;2936715;81;21012;-76
2021/12/02 09:32:17;;;;;;;8.15;2.80;;;;;;;6.06;66.62;98265.39;2936736;81;21063;-75
2021/12/02 09:36:19;;;;;;;10.58;3.12;;;;;;;5.98;65.90;98286.69;2936805;81;21044;-75
2021/12/02 09:40:21;;;;;;;4.20;2.00;;;;;;;6.14;66.16;98276.88;2936771;81;21044;-75
2021/12/02 09:44:23;;;;;;;6.25;2.87;;;;;;;6.38;67.15;98282.09;2936713;81;21008;-76
2021/12/02 09:48:28;;;;;;;4.62;2.33;;;;;;;6.51;66.76;98283.55;2933559;81;21005;-76
2021/12/02 09:52:36;;;;;;;8.35;2.40;;;;;;;6.69;67.71;98298.94;2930864;81;20997;-74
2021/12/02 09:56:36;;;;;;;3.52;1.90;;;;;;;6.79;65.40;98275.55;2930014;81;21012;-74
2021/12/02 10:00:49;;;;;;;4.45;2.85;;;;;;;6.82;63.67;98276.57;2930617;81;21049;-75
2021/12/02 10:13:20;;;;;;;5.47;1.82;;;;;;;7.04;65.29;98293.80;2931003;81;21092;-77
2021/12/02 10:17:22;;;;;;;5.92;1.75;;;;;;;7.02;63.86;98256.11;2928782;81;21076;-75
2021/12/02 10:21:28;;;;;;;3.95;2.17;;;;;;;6.91;63.19;98273.03;2930357;81;20962;-75
2021/12/02 10:25:33;;;;;;;10.98;2.30;;;;;;;6.89;63.61;98277.65;2930863;81;21001;-75
2021/12/02 10:29:37;;;;;;;7.95;2.95;;;;;;;6.97;66.25;98280.34;2930934;81;21020;-78
2021/12/02 10:33:45;;;;;;;3.83;2.37;;;;;;;6.81;65.39;98251.12;2931057;81;21025;-74
2021/12/02 10:37:46;;;;;;;6.85;3.58;;;;;;;6.82;63.80;98277.89;2930821;81;21092;-76
2021/12/02 10:42:09;;;;;;;8.70;3.08;;;;;;;6.80;64.34;98288.63;2930925;81;21017;-76
2021/12/02 10:46:20;;;;;;;3.00;1.52;;;;;;;6.93;65.54;98290.89;2930410;81;21025;-77
2021/12/02 10:50:25;;;;;;;5.70;2.80;;;;;;;6.87;62.57;98279.58;2930608;81;20990;-75
2021/12/02 10:54:31;;;;;;;2.90;1.67;;;;;;;6.82;64.57;98301.67;2930828;81;21059;-74
2021/12/02 11:19:53;;;;;;;3.05;1.98;;;;;;;6.76;64.95;98318.14;3004307;78;23085;-75
2021/12/02 11:23:54;;;;;;;3.47;1.82;;;;;;;6.48;66.92;98330.05;2938063;81;21128;-76
2021/12/02 11:27:57;;;;;;;1.37;1.27;;;;;;;6.09;67.00;98341.64;2938143;81;21022;-76
2021/12/02 11:31:59;;;;;;;4.37;2.05;;;;;;;5.97;68.32;98331.22;2938532;81;21029;-78
2021/12/02 11:36:02;;;;;;;6.15;2.70;;;;;;;5.86;69.06;98326.95;2938123;80;21034;-76
2021/12/02 11:40:18;;;;;;;5.42;1.50;;;;;;;5.79;70.15;98339.06;2938109;81;20978;-76
2021/12/02 11:44:20;;;;;;;3.12;1.82;;;;;;;5.88;69.95;98353.20;2938246;80;21065;-77
2021/12/02 11:48:27;;;;;;;7.85;4.70;;;;;;;6.03;69.40;98341.72;2938047;81;20971;-76
2021/12/02 11:52:29;;;;;;;10.50;5.10;;;;;;;6.11;69.86;98347.13;2938250;81;21030;-76
2021/12/02 11:56:31;;;;;;;22.02;2.77;;;;;;;6.14;66.94;98340.70;2938061;81;21555;-77
2021/12/02 12:00:35;;;;;;;6.10;1.75;;;;;;;6.21;65.90;98345.77;2938691;81;21003;-74
2021/12/02 12:04:39;;;;;;;6.05;1.92;;;;;;;6.16;65.11;98350.63;2938015;81;21041;-74
2021/12/02 12:08:47;;;;;;;5.05;1.60;;;;;;;6.23;64.55;98366.25;2938354;81;20994;-73
2021/12/02 12:12:50;;;;;;;2.80;1.92;;;;;;;6.24;65.02;98357.83;2937401;81;21531;-77
2021/12/02 12:16:57;;;;;;;5.17;1.80;;;;;;;6.28;66.10;98355.23;2941493;80;21049;-79
2021/12/02 12:21:03;;;;;;;5.05;2.47;;;;;;;6.23;64.59;98358.81;2928070;81;21049;-80
2021/12/02 12:25:08;;;;;;;1.67;1.47;;;;;;;6.20;65.41;98354.67;2912890;81;21114;-77
2021/12/02 12:29:15;;;;;;;5.15;1.42;;;;;;;6.21;65.58;98342.28;2919554;81;21038;-77
2021/12/02 12:33:39;;;;;;;4.22;1.47;;;;;;;6.20;64.02;98345.91;2929965;81;21683;-80
2021/12/02 12:37:48;;;;;;;3.42;2.20;;;;;;;6.17;64.34;98347.52;2929671;81;20998;-79
2021/12/02 12:42:06;;;;;;;2.93;1.73;;;;;;;6.13;64.13;98366.77;2929204;81;21552;-80
2021/12/02 12:46:13;;;;;;;3.08;1.92;;;;;;;6.13;65.60;98349.13;2929851;81;21034;-74
2021/12/02 12:50:32;;;;;;;2.58;1.80;;;;;;;6.06;64.97;98351.98;2930204;81;21042;-79
2021/12/02 12:54:35;;;;;;;2.25;1.25;;;;;;;6.05;64.49;98356.92;2929629;81;21129;-80
2021/12/02 12:58:55;;;;;;;2.85;1.30;;;;;;;6.01;64.77;98360.84;2930022;81;21030;-79
2021/12/02 13:03:01;;;;;;;3.77;1.75;;;;;;;6.00;65.20;98359.14;2915159;81;20959;-78
2021/12/02 13:07:15;;;;;;;7.75;1.50;;;;;;;5.98;66.01;98376.93;2903932;81;21573;-75
2021/12/02 13:11:24;;;;;;;4.30;1.32;;;;;;;5.93;65.64;98375.22;2929859;81;21077;-79
2021/12/02 13:15:28;;;;;;;6.50;2.20;;;;;;;5.90;64.91;98379.47;2929883;81;21045;-79
2021/12/02 13:19:30;;;;;;;2.10;0.82;;;;;;;5.83;65.49;98377.37;2937239;81;21046;-80
2021/12/02 13:23:37;;;;;;;2.35;1.67;;;;;;;5.75;62.66;98360.59;2939349;81;21053;-80
2021/12/02 13:27:38;;;;;;;2.75;1.55;;;;;;;5.69;62.38;98366.79;2939154;80;21562;-79
2021/12/02 13:31:44;;;;;;;2.35;1.87;;;;;;;5.66;64.15;98376.78;2938688;81;21104;-79
2021/12/02 13:35:46;;;;;;;3.70;1.10;;;;;;;5.56;64.85;98383.39;2934796;80;20963;-79
2021/12/02 13:39:47;;;;;;;2.12;1.40;;;;;;;5.48;64.41;98397.78;2938829;81;21085;-78
2021/12/02 13:44:04;;;;;;;6.83;2.08;;;;;;;5.39;64.37;98394.17;2938554;80;20970;-79
2021/12/02 13:48:13;;;;;;;1.95;1.67;;;;;;;5.36;63.44;98394.45;2938846;80;21041;-77
2021/12/02 13:52:20;;;;;;;1.80;1.10;;;;;;;5.27;65.22;98396.93;2938186;80;21022;-76
2021/12/02 13:56:26;;;;;;;11.03;2.40;;;;;;;5.15;66.00;98403.33;2938802;80;21045;-78
2021/12/02 14:00:35;;;;;;;3.60;1.87;;;;;;;5.02;66.24;98404.06;2938658;80;20994;-80
2021/12/02 14:04:47;;;;;;;5.03;2.27;;;;;;;4.89;66.26;98393.28;2912224;81;21029;-74
2021/12/02 14:08:48;;;;;;;5.15;2.55;;;;;;;5.05;66.80;98417.81;2886872;82;20991;-78
2021/12/02 14:13:00;;;;;;;4.47;3.15;;;;;;;4.86;66.86;98429.97;2886646;82;20982;-81
2021/12/02 14:17:06;;;;;;;3.92;2.25;;;;;;;4.75;67.38;98431.39;2888669;81;21058;-80
2021/12/02 14:21:12;;;;;;;3.55;2.27;;;;;;;4.67;67.21;98430.73;2906822;81;21014;-79
2021/12/02 14:25:14;;;;;;;5.83;3.72;;;;;;;4.61;67.69;98441.81;2906995;82;21058;-78
2021/12/02 14:29:15;;;;;;;4.58;2.47;;;;;;;4.50;68.42;98445.84;2906771;82;21101;-79
2021/12/02 14:33:30;;;;;;;3.10;1.98;;;;;;;4.39;68.64;98456.83;2906972;82;21053;-81
2021/12/02 14:37:32;;;;;;;8.00;4.35;;;;;;;4.31;69.36;98469.80;2879011;82;21006;-80
2021/12/02 14:41:41;;;;;;;2.20;1.90;;;;;;;4.20;69.92;98473.34;2906949;82;21622;-80
2021/12/02 14:45:42;;;;;;;10.30;3.85;;;;;;;4.11;69.61;98473.64;2906676;82;21054;-79
2021/12/02 14:49:46;;;;;;;5.72;3.00;;;;;;;4.06;70.05;98481.59;2906687;82;21054;-80
2021/12/02 14:53:57;;;;;;;8.38;4.22;;;;;;;3.95;70.23;98491.20;2906814;82;21082;-79
2021/12/02 14:57:59;;;;;;;5.03;3.90;;;;;;;3.91;70.72;98488.94;2851629;83;21070;-79
2021/12/02 15:02:18;;;;;;;6.58;4.22;;;;;;;3.79;70.99;98493.42;2827721;84;21355;-78
2021/12/02 15:06:40;;;;;;;10.23;5.92;;;;;;;3.73;71.64;98494.76;2803209;85;21043;-80
2021/12/02 15:10:42;;;;;;;13.10;5.37;;;;;;;3.59;72.16;98493.77;2827183;84;21051;-79
2021/12/02 15:14:48;;;;;;;10.23;4.67;;;;;;;3.45;72.47;98489.14;2803465;85;21019;-81
2021/12/02 15:18:50;;;;;;;12.00;5.17;;;;;;;3.41;72.70;98497.74;2825040;84;21089;-81
2021/12/02 15:23:02;;;;;;;7.22;3.75;;;;;;;3.33;72.97;98498.00;2822697;84;21038;-81
2021/12/02 15:27:13;;;;;;;12.47;5.15;;;;;;;3.22;73.38;98510.23;2822586;84;21066;-78
2021/12/02 15:31:27;;;;;;;10.93;5.28;;;;;;;3.12;73.78;98517.16;2822620;84;21066;-79
2021/12/02 15:35:30;;;;;;;13.08;5.22;;;;;;;3.03;74.22;98529.72;2822212;84;21089;-80
2021/12/02 15:39:32;;;;;;;9.05;5.90;;;;;;;2.95;74.30;98533.80;2822219;84;21007;-80
2021/12/02 15:48:03;;;;;;;8.38;5.40;;;;;;;2.81;75.05;98546.67;2821813;84;21074;-80
2021/12/02 15:52:06;;;;;;;15.30;6.33;;;;;;;2.75;75.12;98560.28;2822034;84;21097;-81
2021/12/02 15:56:08;;;;;;;11.57;5.65;;;;;;;2.74;75.17;98578.31;2822297;84;21006;-82
2021/12/02 16:00:17;;;;;;;12.63;5.25;;;;;;;2.76;75.11;98588.70;2822337;84;21038;-80
2021/12/02 16:04:37;;;;;;;10.30;5.83;;;;;;;2.70;75.14;98605.27;2822242;84;21038;-81
2021/12/02 16:08:46;;;;;;;18.95;6.72;;;;;;;2.67;75.16;98600.26;2820373;84;21094;-78
2021/12/02 16:12:43;;;;;;;17.97;9.70;;;;;;;2.64;75.41;98617.56;2821552;84;21539;-80
2021/12/02 16:16:45;;;;;;;17.92;11.05;;;;;;;2.55;75.53;98623.48;2822075;84;21256;-81
2021/12/02 16:20:47;;;;;;;17.27;8.45;;;;;;;2.51;75.78;98633.86;2824107;84;21578;-80
2021/12/02 16:24:53;;;;;;;31.20;11.55;;;;;;;2.47;75.94;98635.05;2788797;85;21048;-79
2021/12/02 16:28:54;;;;;;;13.65;9.40;;;;;;;2.46;75.66;98645.19;2836392;84;21033;-81
2021/12/02 16:32:56;;;;;;;15.72;8.78;;;;;;;2.53;75.37;98642.45;2788580;84;21020;-81
2021/12/02 16:36:57;;;;;;;11.78;5.37;;;;;;;2.61;74.98;98640.58;2835741;84;21065;-80
2021/12/02 16:41:00;;;;;;;24.65;8.45;;;;;;;2.68;74.86;98640.00;2788465;85;21132;-81
2021/12/02 16:45:04;;;;;;;14.50;7.92;;;;;;;2.68;75.05;98633.44;2835310;84;21677;-80
2021/12/02 16:49:06;;;;;;;10.80;6.47;;;;;;;2.64;75.35;98640.34;2788342;85;21076;-82
2021/12/02 16:53:08;;;;;;;16.50;7.53;;;;;;;2.56;75.80;98644.87;2805377;84;21569;-80
2021/12/02 16:57:12;;;;;;;21.42;8.43;;;;;;;2.48;75.63;98646.77;2806017;84;21046;-76
2021/12/02 17:01:14;;;;;;;15.88;8.35;;;;;;;2.46;75.73;98649.98;2809907;84;21055;-78
2021/12/02 17:05:16;;;;;;;15.28;8.83;;;;;;;2.46;76.37;98668.36;2809583;84;21031;-80
2021/12/02 17:09:18;;;;;;;20.08;11.08;;;;;;;2.42;76.83;98675.61;2807727;84;21010;-81
2021/12/02 17:13:23;;;;;;;13.22;8.85;;;;;;;2.40;77.07;98671.41;2835764;84;21014;-81
2021/12/02 17:17:25;;;;;;;23.77;10.88;;;;;;;2.35;77.34;98676.17;2788353;85;21056;-82
2021/12/02 17:21:27;;;;;;;15.80;9.20;;;;;;;2.26;77.79;98676.37;2808285;84;21070;-81
2021/12/02 17:25:30;;;;;;;15.30;10.65;;;;;;;2.24;78.03;98675.16;2802756;84;22266;-80
2021/12/02 17:29:31;;;;;;;14.80;9.88;;;;;;;2.25;78.09;98682.08;2826323;84;21054;-81
2021/12/02 17:33:33;;;;;;;16.40;9.13;;;;;;;2.19;78.48;98689.09;2802686;85;21590;-79
2021/12/02 17:37:38;;;;;;;19.15;9.53;;;;;;;2.14;78.43;98694.66;2826221;84;21018;-80
2021/12/02 17:41:40;;;;;;;15.55;9.78;;;;;;;2.13;78.22;98694.30;2802534;85;21086;-81
2021/12/02 17:45:43;;;;;;;13.40;8.73;;;;;;;2.02;78.67;98711.31;2825942;84;21102;-80
2021/12/02 17:49:45;;;;;;;18.15;8.75;;;;;;;1.94;78.84;98717.56;2802207;84;21018;-82
2021/12/02 17:53:49;;;;;;;13.15;8.25;;;;;;;1.84;79.30;98735.73;2826099;84;21053;-78
2021/12/02 17:57:51;;;;;;;12.30;7.00;;;;;;;1.79;78.32;98743.94;2802237;85;21050;-80
2021/12/02 18:01:53;;;;;;;20.48;6.35;;;;;;;1.83;77.54;98751.95;2825765;84;21021;-79
2021/12/02 18:05:55;;;;;;;27.42;10.70;;;;;;;1.87;75.69;98747.80;2822484;83;21098;-80
2021/12/02 18:09:56;;;;;;;19.15;9.95;;;;;;;1.99;72.78;98750.87;2832024;84;21021;-72
2021/12/02 18:13:58;;;;;;;11.35;7.05;;;;;;;2.19;72.00;98771.73;2851919;82;21023;-73
2021/12/02 18:18:00;;;;;;;11.97;5.42;;;;;;;2.31;71.93;98767.39;2852983;83;21015;-72
2021/12/02 18:22:02;;;;;;;7.47;5.80;;;;;;;2.28;72.27;98782.91;2872171;83;21042;-70
2021/12/02 18:26:05;;;;;;;12.18;5.28;;;;;;;2.31;73.64;98777.89;2872408;83;21046;-71
2021/12/02 18:30:08;;;;;;;8.35;6.30;;;;;;;2.13;73.85;98783.50;2872380;83;21038;-71
2021/12/02 18:34:12;;;;;;;11.60;6.83;;;;;;;2.10;73.64;98784.21;2826909;83;21073;-72
2021/12/02 18:38:14;;;;;;;14.25;6.28;;;;;;;2.13;72.67;98790.05;2845424;82;21091;-72
2021/12/02 18:42:16;;;;;;;12.45;7.65;;;;;;;2.23;73.37;98796.80;2833198;84;21021;-71
2021/12/02 18:46:17;;;;;;;14.20;7.20;;;;;;;2.20;73.49;98800.14;2803211;85;21629;-70
2021/12/02 18:50:19;;;;;;;10.40;6.55;;;;;;;2.10;73.64;98815.20;2821255;84;21069;-70
2021/12/02 18:54:24;;;;;;;15.78;7.85;;;;;;;2.02;73.65;98814.06;2837152;84;20966;-70
2021/12/02 18:58:25;;;;;;;11.38;6.10;;;;;;;1.95;73.65;98821.05;2872099;82;21054;-70
2021/12/02 19:02:27;;;;;;;7.00;3.92;;;;;;;2.00;73.13;98832.55;2876188;82;21077;-70
2021/12/02 19:06:44;;;;;;;15.08;6.90;;;;;;;1.94;72.54;98833.80;2875808;82;21062;-70
2021/12/02 19:27:57;;;;;;;8.80;5.53;;;;;;;1.90;70.79;98863.81;2846129;83;21003;-70
2021/12/02 19:32:00;;;;;;;14.58;6.03;;;;;;;2.02;70.75;98871.31;2846596;83;21035;-70
2021/12/02 19:36:06;;;;;;;10.23;5.30;;;;;;;2.03;70.19;98881.31;2830275;84;21055;-70
2021/12/02 19:40:09;;;;;;;12.65;6.25;;;;;;;2.06;70.42;98884.58;2859954;83;21018;-70
2021/12/02 19:44:11;;;;;;;10.48;4.22;;;;;;;2.12;70.25;98882.83;2870162;83;21074;-70
2021/12/02 19:48:13;;;;;;;12.43;5.12;;;;;;;2.16;70.02;98890.48;2835529;83;21113;-70
2021/12/02 19:52:15;;;;;;;14.18;5.10;;;;;;;2.16;69.62;98897.89;2807549;85;21042;-70
2021/12/02 19:56:16;;;;;;;11.50;7.25;;;;;;;2.07;69.16;98904.61;2807914;85;21075;-70
2021/12/02 20:00:22;;;;;;;14.23;6.00;;;;;;;2.04;69.43;98910.07;2807436;85;21022;-70
2021/12/02 20:04:24;;;;;;;12.18;4.72;;;;;;;1.95;69.47;98907.61;2807723;85;21498;-70
2021/12/02 20:08:25;;;;;;;7.60;5.35;;;;;;;1.97;69.94;98916.69;2812783;84;21051;-70
2021/12/02 20:12:28;;;;;;;6.40;4.33;;;;;;;1.93;70.21;98918.67;2850524;83;21090;-70
2021/12/02 20:16:41;;;;;;;9.60;4.37;;;;;;;1.91;70.56;98920.56;2782436;85;21081;-70